Terminal Aerodrome Forecast
Issued by NWS Binghamton, NY

Home | Current Version | Previous Version | Text Only | Print | Product List | Glossary On
Versions: 1 2 3 4 5 6 7 8 9 10 11 12 13 14 15 16 17 18 19 20 21 22 23 24 25
170
FTUS41 KBGM 031729
TAFBGM
TAF
KBGM 031729Z 0318/0418 31010G17KT P6SM BKN015 OVC025
      TEMPO 0318/0321 2SM -SHSN OVC009
     FM040300 31010KT P6SM OVC025
     FM040900 32004KT P6SM OVC015
     FM041500 32008KT P6SM BKN025
     FM041700 31007KT P6SM SCT035=

USA.gov is the U.S. government's official web portal to all federal, state and local government web resources and services.